Latest Weather Observations for Cape Sorell

IDT60801

Issued at 7:35 pm EST Thursday 17 April 2014 (issued every 30 minutes, with the page automatically refreshed every 10 minutes)

About weather observations | Map of weather stations | Latest weather observations for TAS | Other Formats
Station Details ID: 097000 Name: CAPE SORELL Lat: -42.20 Lon: 145.17 Height: 19.3 m
Data from the previous 72 hours. | See also: Recent months at Cape Sorell
Date/Time
EST
Temp
°C
App
Temp
°C
Dew
Point
Rel
Hum
%
Delta-T
°C
Wind Press
QNH
hPa
Press
MSL
hPa
Rain
since 9 am
mm
Dir
 
Spd
km/h
Gust
km/h
Spd
kts
Gust
kts
17/07:30pm 16.3 13.2 14.5 89 1.0 N 24 35 13 19 1015.9 - 0.0
17/07:00pm 16.4 13.3 14.6 89 1.0 N 24 33 13 18 1016.1 1016.0 0.0
17/06:30pm 16.4 12.9 14.4 88 1.1 NNW 26 37 14 20 1016.0 - 0.0
17/06:00pm 16.6 12.4 14.6 88 1.1 NNW 30 37 16 20 1016.1 1016.0 0.0
17/05:30pm 16.8 12.9 14.4 86 1.4 NNW 28 35 15 19 1016.1 - 0.0
17/05:00pm 16.9 13.4 14.4 85 1.4 NNW 26 33 14 18 1016.1 1016.0 0.0
17/04:30pm 17.0 13.4 14.1 83 1.7 NNW 26 33 14 18 1016.2 - 0.0
17/04:00pm 16.9 14.1 14.2 84 1.5 NW 22 28 12 15 1016.3 1016.2 0.0
17/03:30pm 17.0 14.6 13.7 81 1.9 NNW 19 24 10 13 1016.5 - 0.0
17/03:00pm 18.0 15.5 13.5 75 2.5 NNW 19 22 10 12 1016.5 1016.5 0.0
17/02:30pm 18.9 17.2 13.5 71 3.1 NNW 15 20 8 11 1016.8 - 0.0
17/02:00pm 19.3 18.0 13.7 70 3.2 NNW 13 17 7 9 1017.1 1017.1 0.0
17/01:30pm 19.4 17.7 13.6 69 3.3 NNW 15 19 8 10 1017.7 - 0.0
17/01:00pm 19.5 17.7 13.2 67 3.6 NNW 15 19 8 10 1018.1 1018.1 0.0
17/12:30pm 19.6 18.6 13.3 67 3.6 NNW 11 15 6 8 1018.5 - 0.0
17/12:00pm 18.9 16.5 12.6 67 3.5 N 17 20 9 11 1018.8 1018.8 0.0
17/11:30am 18.6 15.7 12.4 67 3.5 N 19 22 10 12 1019.1 - 0.0
17/11:00am 18.1 15.1 12.1 68 3.3 N 19 24 10 13 1019.4 1019.4 0.0
17/10:30am 17.4 14.3 12.1 71 2.9 NNE 20 24 11 13 1019.4 - 0.0
17/10:00am 16.2 13.2 11.8 75 2.4 NNE 19 20 10 11 1019.3 1019.3 0.0
17/09:30am 15.4 12.7 11.6 78 2.0 NE 17 20 9 11 1019.6 - 0.0
17/09:00am 14.7 12.6 11.1 79 1.9 NNE 13 20 7 11 1019.7 1019.7 0.0
17/08:30am 13.9 10.5 11.1 83 1.5 NE 20 26 11 14 1019.4 - 0.0
17/08:00am 13.6 9.8 11.0 84 1.4 NE 22 26 12 14 1019.2 1019.2 0.0
17/07:30am 13.1 10.0 11.5 90 0.8 NE 19 22 10 12 1019.3 - 0.0
17/07:00am 11.9 9.3 10.6 92 0.7 ENE 15 19 8 10 1019.3 1019.3 0.0
17/06:30am 11.9 9.7 10.8 93 0.6 ENE 13 17 7 9 1019.3 - 0.0
17/06:00am 11.2 7.6 10.0 92 0.6 ENE 19 22 10 12 1019.3 1019.3 0.0
17/05:30am 11.6 8.5 10.2 91 0.7 ENE 17 19 9 10 1019.3 - 0.0
17/05:00am 11.1 9.3 9.5 90 0.8 ENE 9 13 5 7 1019.4 1019.4 0.0
17/04:30am 11.6 9.5 9.7 88 1.0 ENE 11 15 6 8 1019.4 - 0.0
17/04:00am 12.2 10.1 9.9 86 1.2 ENE 11 13 6 7 1019.1 1019.1 0.0
17/03:30am 13.4 11.3 11.1 86 1.2 NNE 13 19 7 10 1019.0 - 0.0
17/03:00am 12.9 10.6 10.3 84 1.3 NE 13 15 7 8 1019.2 1019.2 0.0
17/02:30am 13.7 11.2 11.0 84 1.4 NNE 15 22 8 12 1019.4 - 0.0
17/02:00am 13.5 10.1 10.7 83 1.5 NE 19 24 10 13 1019.4 1019.4 0.0
17/01:30am 13.3 10.6 10.5 83 1.5 NE 15 19 8 10 1019.6 - 0.0
17/01:00am 13.9 10.9 10.7 81 1.7 NNE 17 20 9 11 1019.6 1019.6 0.0
17/12:30am 14.1 11.1 10.7 80 1.8 NNE 17 19 9 10 1019.5 - 0.0
17/12:00am 14.1 11.6 11.1 82 1.6 NNE 15 19 8 10 1019.7 1019.7 0.0
 
Date/Time
EST
Temp
°C
App
Temp
°C
Dew
Point
Rel
Hum
%
Delta-T
°C
Wind Press
QNH
hPa
Press
MSL
hPa
Rain
since 9 am
mm
Dir
 
Spd
km/h
Gust
km/h
Spd
kts
Gust
kts
16/11:30pm 14.4 12.4 11.6 83 1.5 NNE 13 17 7 9 1020.0 - 0.0
16/11:00pm 14.3 11.9 12.7 90 0.9 N 17 20 9 11 1020.1 1020.1 0.0
16/10:30pm 13.4 12.2 12.9 97 0.3 ENE 11 17 6 9 1019.9 - 0.0
16/10:00pm 13.7 11.8 13.1 96 0.3 E 15 19 8 10 1019.8 1019.8 0.0
16/09:30pm 13.8 11.9 12.9 94 0.5 E 15 19 8 10 1019.7 - 0.0
16/09:00pm 14.2 13.9 12.8 91 0.8 E 6 9 3 5 1019.9 1019.9 0.0
16/08:30pm 14.7 15.3 13.1 90 0.9 NNE 2 7 1 4 1019.7 - 0.0
16/08:00pm 14.4 14.5 12.6 89 1.0 W 4 4 2 2 1019.4 1019.4 0.0
16/07:30pm 14.7 14.8 12.7 88 1.1 W 4 7 2 4 1019.4 - 0.0
16/07:00pm 15.0 14.6 13.0 88 1.1 W 7 11 4 6 1019.5 1019.5 0.0
16/06:30pm 15.3 14.6 13.3 88 1.1 W 9 15 5 8 1019.4 - 0.0
16/06:00pm 15.4 15.1 13.4 88 1.1 W 7 13 4 7 1019.4 1019.4 0.0
16/05:30pm 15.6 14.7 13.6 88 1.1 W 11 17 6 9 1019.3 - 0.0
16/05:00pm 15.7 13.0 13.4 86 1.3 W 20 26 11 14 1019.2 1019.2 0.0
16/04:30pm 16.6 13.3 12.8 78 2.1 W 22 28 12 15 1019.1 - 0.0
16/04:00pm 16.6 13.9 12.8 78 2.1 WNW 19 26 10 14 1019.1 1019.1 0.0
16/03:30pm 17.0 14.0 12.7 76 2.4 WNW 20 26 11 14 1019.0 - 0.0
16/03:00pm 17.3 14.3 12.6 74 2.6 WNW 20 26 11 14 1019.0 1019.0 0.0
16/02:30pm 17.1 15.4 12.4 74 2.6 NW 13 19 7 10 1019.1 - 0.0
16/02:00pm 18.0 16.6 12.2 69 3.2 NW 11 17 6 9 1019.2 1019.2 0.0
16/01:30pm 18.2 16.8 12.2 68 3.3 NW 11 17 6 9 1019.4 - 0.0
16/01:00pm 18.1 16.9 11.7 66 3.5 NNW 9 13 5 7 1019.7 1019.7 0.0
16/12:30pm 16.7 14.9 11.0 69 3.1 N 11 13 6 7 1020.1 - 0.0
16/12:00pm 16.6 14.9 11.1 70 2.9 NNE 11 15 6 8 1020.5 1020.5 0.0
16/11:30am 16.1 13.0 10.2 68 3.1 NNE 17 19 9 10 1020.6 - 0.0
16/11:00am 15.8 12.8 10.6 71 2.7 NE 17 22 9 12 1020.7 1020.7 0.0
16/10:30am 15.6 12.1 10.2 70 2.8 NNE 19 22 10 12 1020.8 - 0.0
16/10:00am 15.7 13.1 10.7 72 2.6 NE 15 19 8 10 1021.0 1021.0 0.0
16/09:30am 14.7 12.4 10.5 76 2.2 NE 13 17 7 9 1021.2 - 0.0
16/09:00am 14.1 11.6 9.7 75 2.3 NE 13 19 7 10 1021.5 1021.5 0.0
16/08:30am 13.3 10.8 9.7 79 1.8 ENE 13 19 7 10 1021.3 - 0.0
16/08:00am 12.9 9.9 9.4 79 1.8 ENE 15 19 8 10 1021.4 1021.4 0.0
16/07:30am 12.5 9.5 9.1 80 1.7 ENE 15 19 8 10 1021.3 - 0.0
16/07:00am 12.3 8.9 9.0 80 1.6 ENE 17 20 9 11 1021.3 1021.3 0.0
16/06:30am 12.3 8.9 9.1 81 1.6 ENE 17 20 9 11 1021.2 - 0.0
16/06:00am 12.6 8.9 9.4 81 1.6 ENE 19 24 10 13 1021.1 1021.1 0.0
16/05:30am 12.5 8.7 9.9 84 1.3 ENE 20 26 11 14 1021.0 - 0.0
16/05:00am 12.9 9.8 10.3 84 1.3 NE 17 22 9 12 1021.1 1021.1 0.0
16/04:30am 12.6 9.4 10.0 84 1.3 ENE 17 20 9 11 1021.3 - 0.0
16/04:00am 12.6 9.5 10.3 86 1.2 ENE 17 20 9 11 1021.4 1021.4 0.0
16/03:30am 12.6 9.9 10.5 87 1.1 ENE 15 17 8 9 1021.5 - 0.0
16/03:00am 13.0 9.7 10.9 87 1.1 ENE 19 24 10 13 1021.7 1021.7 0.0
16/02:30am 12.8 10.8 11.5 92 0.7 ENE 13 17 7 9 1022.1 - 0.0
16/02:00am 12.1 9.5 10.8 92 0.7 E 15 19 8 10 1022.3 1022.3 0.0
16/01:30am 12.3 10.1 10.9 91 0.7 ENE 13 15 7 8 1022.6 - 0.0
16/01:00am 12.5 10.3 10.9 90 0.8 E 13 15 7 8 1022.9 1022.9 0.0
16/12:30am 13.2 11.9 11.4 89 1.0 E 9 11 5 6 1023.0 - 0.0
16/12:00am 13.3 12.0 11.4 88 1.0 E 9 11 5 6 1023.2 1023.2 0.0
 
Date/Time
EST
Temp
°C
App
Temp
°C
Dew
Point
Rel
Hum
%
Delta-T
°C
Wind Press
QNH
hPa
Press
MSL
hPa
Rain
since 9 am
mm
Dir
 
Spd
km/h
Gust
km/h
Spd
kts
Gust
kts
15/11:30pm 14.4 12.8 11.7 84 1.5 NE 11 13 6 7 1023.4 - 0.0
15/11:00pm 14.5 13.0 11.8 84 1.4 NNE 11 13 6 7 1023.7 1023.7 0.0
15/10:30pm 14.5 13.3 11.7 83 1.5 N 9 11 5 6 1023.9 - 0.0
15/10:00pm 14.6 13.4 11.7 83 1.6 N 9 11 5 6 1024.0 1024.0 0.0
15/09:30pm 14.1 13.8 11.3 83 1.5 E 4 4 2 2 1024.0 - 0.0
15/09:00pm 13.9 13.7 10.5 80 1.8 SW 2 6 1 3 1023.8 1023.8 0.0
15/08:30pm 14.0 14.2 10.6 80 1.8 CALM 0 0 0 0 1023.6 - 0.0
15/08:00pm 13.9 13.4 10.7 81 1.7 SW 4 6 2 3 1023.6 1023.6 0.0
15/07:30pm 14.1 13.0 10.7 80 1.8 SW 7 9 4 5 1023.7 - 0.0
15/07:00pm 14.2 12.4 10.8 80 1.8 SW 11 13 6 7 1023.7 1023.7 0.0
15/06:30pm 14.2 11.9 10.6 79 1.9 SSW 13 15 7 8 1023.4 - 0.0
15/06:00pm 14.6 12.0 10.6 77 2.1 SSW 15 17 8 9 1023.0 1023.0 0.0
15/05:30pm 14.9 12.2 10.5 75 2.3 SSW 15 17 8 9 1022.8 - 0.0
15/05:00pm 15.5 12.9 10.7 73 2.5 SSW 15 17 8 9 1022.8 1022.8 0.0
15/04:30pm 15.9 13.0 11.1 73 2.6 SSW 17 19 9 10 1022.7 - 0.0
15/04:00pm 16.1 13.1 10.8 71 2.8 SSW 17 19 9 10 1022.7 1022.7 0.0
15/03:30pm 16.4 13.4 10.5 68 3.1 SSW 17 19 9 10 1023.0 - 0.0
15/03:00pm 16.3 13.2 10.4 68 3.1 S 17 20 9 11 1023.0 1023.0 0.0
15/02:30pm 16.5 13.4 10.4 67 3.2 SSW 17 20 9 11 1023.3 - 0.0
15/02:00pm 16.7 13.2 10.8 68 3.1 SSW 20 24 11 13 1023.4 1023.4 0.0
15/01:30pm 16.7 13.3 10.5 67 3.3 SSW 19 22 10 12 1023.5 - 0.0
15/01:00pm 16.7 13.7 10.8 68 3.1 SSW 17 20 9 11 1023.6 1023.6 0.0
15/12:30pm 16.0 12.8 10.1 68 3.1 SSW 17 19 9 10 1024.1 - 0.0
15/12:00pm 16.5 14.0 11.2 71 2.8 SSW 15 19 8 10 1024.4 1024.4 0.0
15/11:30am 16.2 14.1 11.2 72 2.7 SSW 13 17 7 9 1024.7 - 0.0
15/11:00am 15.4 14.0 11.0 75 2.3 SSW 9 13 5 7 1024.9 1024.9 0.0
15/10:30am 15.4 14.5 11.4 77 2.1 SSW 7 9 4 5 1024.9 - 0.0
15/10:00am 14.7 13.7 10.9 78 2.0 ESE 7 11 4 6 1025.0 1025.0 0.0
15/09:30am 14.3 13.5 10.9 80 1.8 SSE 6 9 3 5 1025.0 - 0.0
15/09:00am 13.8 12.9 10.8 82 1.6 SSE 6 7 3 4 1025.0 1025.0 0.2
15/08:30am 13.3 12.4 10.5 83 1.5 SE 6 7 3 4 1025.1 - 0.2
15/08:00am 12.9 11.9 10.3 84 1.3 SE 6 9 3 5 1025.0 1025.0 0.2
15/07:30am 12.7 11.6 10.1 84 1.3 SSE 6 9 3 5 1024.8 - 0.2
15/07:00am 12.8 11.2 10.3 85 1.3 S 9 15 5 8 1024.4 1024.4 0.2
15/06:30am 12.5 11.2 9.9 84 1.3 SSE 7 11 4 6 1024.3 - 0.2
15/06:00am 12.6 10.9 9.8 83 1.4 SSE 9 11 5 6 1024.2 1024.2 0.2
15/05:30am 12.8 10.3 9.6 81 1.6 S 13 19 7 10 1024.2 - 0.2
15/05:00am 12.5 10.3 9.3 81 1.6 SSE 11 17 6 9 1024.0 1024.0 0.2
15/04:30am 12.6 10.0 9.4 81 1.6 SSE 13 17 7 9 1024.1 - 0.2
15/04:00am 12.9 10.8 9.9 82 1.5 S 11 19 6 10 1024.1 1024.1 0.2
15/03:30am 12.5 9.5 9.1 80 1.7 SE 15 19 8 10 1024.0 - 0.2
15/03:00am 13.3 9.2 10.1 81 1.6 S 22 30 12 16 1024.0 1024.0 0.2
15/02:30am 13.1 8.6 10.1 82 1.5 S 24 33 13 18 1024.1 - 0.2
15/02:00am 13.0 8.9 10.2 83 1.4 S 22 30 12 16 1024.2 1024.2 0.2
15/01:30am 13.2 9.6 10.4 83 1.5 S 20 26 11 14 1024.2 - 0.2
15/01:00am 13.6 10.2 11.1 85 1.3 S 20 28 11 15 1024.1 1024.1 0.2
15/12:30am 13.2 9.6 10.7 85 1.3 S 20 26 11 14 1024.1 - 0.2
15/12:00am 13.4 10.1 10.9 85 1.3 S 19 24 10 13 1024.2 1024.2 0.2
 
Date/Time
EST
Temp
°C
App
Temp
°C
Dew
Point
Rel
Hum
%
Delta-T
°C
Wind Press
QNH
hPa
Press
MSL
hPa
Rain
since 9 am
mm
Dir
 
Spd
km/h
Gust
km/h
Spd
kts
Gust
kts
14/11:30pm 13.3 9.8 11.0 86 1.2 S 20 26 11 14 1024.2 - 0.2
14/11:00pm 13.2 10.3 11.1 87 1.1 SSE 17 22 9 12 1024.3 1024.3 0.2
14/10:30pm 13.8 11.5 11.8 88 1.1 S 15 19 8 10 1024.5 - 0.2
14/10:00pm 13.7 11.8 11.8 88 1.0 S 13 19 7 10 1024.5 1024.5 0.2
14/09:30pm 13.4 11.7 11.3 87 1.1 SSE 11 15 6 8 1024.5 - 0.2
14/09:00pm 13.6 11.2 11.5 87 1.1 S 15 20 8 11 1024.5 1024.5 0.2
14/08:30pm 13.6 11.7 11.7 88 1.0 SSE 13 19 7 10 1024.5 - 0.2
14/08:00pm 13.4 11.1 11.6 89 1.0 SSE 15 20 8 11 1024.2 1024.2 0.2

Other Formats:

Comma delimited format used in spreadsheet applications
http://www.bom.gov.au/fwo/IDT60801/IDT60801.94974.axf

JavaScript Object Notation format (JSON) in row-major order
http://www.bom.gov.au/fwo/IDT60801/IDT60801.94974.json